sensor_id;sensor_type;location;lat;lon;timestamp;pressure;altitude;pressure_sealevel;temperature;humidity
23733;BME280;12047;53.450;-2.286;2022-12-07T00:00:26;102303.78;;;8.58;100.00
23733;BME280;12047;53.450;-2.286;2022-12-07T00:05:26;102292.59;;;8.22;100.00
23733;BME280;12047;53.450;-2.286;2022-12-07T00:10:27;102297.75;;;8.56;100.00
23733;BME280;12047;53.450;-2.286;2022-12-07T00:15:28;102288.16;;;8.22;100.00
23733;BME280;12047;53.450;-2.286;2022-12-07T00:20:28;102298.09;;;8.17;100.00
23733;BME280;12047;53.450;-2.286;2022-12-07T00:25:30;102302.13;;;8.08;100.00
23733;BME280;12047;53.450;-2.286;2022-12-07T00:30:30;102304.84;;;8.23;100.00
23733;BME280;12047;53.450;-2.286;2022-12-07T00:35:31;102305.00;;;8.04;100.00
23733;BME280;12047;53.450;-2.286;2022-12-07T00:40:32;102305.75;;;7.90;100.00
23733;BME280;12047;53.450;-2.286;2022-12-07T00:45:32;102301.56;;;8.50;100.00
23733;BME280;12047;53.450;-2.286;2022-12-07T00:50:33;102293.03;;;8.14;100.00
23733;BME280;12047;53.450;-2.286;2022-12-07T00:55:34;102299.53;;;8.40;100.00
23733;BME280;12047;53.450;-2.286;2022-12-07T01:00:36;102293.59;;;8.19;100.00
23733;BME280;12047;53.450;-2.286;2022-12-07T01:05:38;102279.44;;;8.37;100.00
23733;BME280;12047;53.450;-2.286;2022-12-07T01:10:38;102285.25;;;8.11;100.00
23733;BME280;12047;53.450;-2.286;2022-12-07T01:15:43;102275.81;;;8.23;100.00
23733;BME280;12047;53.450;-2.286;2022-12-07T01:20:44;102274.28;;;8.50;100.00
23733;BME280;12047;53.450;-2.286;2022-12-07T01:25:44;102288.22;;;8.38;100.00
23733;BME280;12047;53.450;-2.286;2022-12-07T01:31:06;102282.31;;;8.33;100.00
23733;BME280;12047;53.450;-2.286;2022-12-07T01:41:09;102254.66;;;9.00;100.00
23733;BME280;12047;53.450;-2.286;2022-12-07T01:46:10;102263.47;;;8.55;100.00
23733;BME280;12047;53.450;-2.286;2022-12-07T01:51:13;102258.16;;;8.23;100.00
23733;BME280;12047;53.450;-2.286;2022-12-07T01:56:19;102260.31;;;8.94;100.00
23733;BME280;12047;53.450;-2.286;2022-12-07T02:01:21;102252.13;;;8.98;100.00
23733;BME280;12047;53.450;-2.286;2022-12-07T02:06:24;102258.78;;;8.44;100.00
23733;BME280;12047;53.450;-2.286;2022-12-07T02:11:26;102255.56;;;8.39;100.00
23733;BME280;12047;53.450;-2.286;2022-12-07T02:38:02;102252.81;;;7.60;100.00
23733;BME280;12047;53.450;-2.286;2022-12-07T02:48:45;102229.09;;;7.10;100.00
23733;BME280;12047;53.450;-2.286;2022-12-07T02:53:47;102229.34;;;6.35;100.00
23733;BME280;12047;53.450;-2.286;2022-12-07T03:09:29;102217.81;;;8.05;100.00
23733;BME280;12047;53.450;-2.286;2022-12-07T03:14:38;102218.81;;;7.87;100.00
23733;BME280;12047;53.450;-2.286;2022-12-07T03:19:42;102218.56;;;7.92;100.00
23733;BME280;12047;53.450;-2.286;2022-12-07T03:24:57;102218.53;;;7.27;100.00
23733;BME280;12047;53.450;-2.286;2022-12-07T03:30:02;102210.09;;;7.54;100.00
23733;BME280;12047;53.450;-2.286;2022-12-07T03:35:08;102204.88;;;7.52;100.00
23733;BME280;12047;53.450;-2.286;2022-12-07T03:40:35;102202.38;;;7.33;100.00
23733;BME280;12047;53.450;-2.286;2022-12-07T03:56:28;102202.91;;;7.40;100.00
23733;BME280;12047;53.450;-2.286;2022-12-07T04:01:29;102202.06;;;7.39;100.00
23733;BME280;12047;53.450;-2.286;2022-12-07T04:06:31;102187.53;;;7.48;100.00
23733;BME280;12047;53.450;-2.286;2022-12-07T04:11:32;102181.03;;;6.70;100.00
23733;BME280;12047;53.450;-2.286;2022-12-07T04:16:32;102178.34;;;6.89;100.00
23733;BME280;12047;53.450;-2.286;2022-12-07T04:21:36;102182.69;;;7.23;100.00
23733;BME280;12047;53.450;-2.286;2022-12-07T04:26:36;102173.72;;;7.43;100.00
23733;BME280;12047;53.450;-2.286;2022-12-07T04:31:38;102182.63;;;7.25;100.00
23733;BME280;12047;53.450;-2.286;2022-12-07T04:36:39;102172.19;;;6.37;100.00
23733;BME280;12047;53.450;-2.286;2022-12-07T04:41:39;102163.69;;;7.34;100.00
23733;BME280;12047;53.450;-2.286;2022-12-07T04:46:41;102159.19;;;7.36;100.00
23733;BME280;12047;53.450;-2.286;2022-12-07T04:51:41;102165.91;;;7.08;100.00
23733;BME280;12047;53.450;-2.286;2022-12-07T04:56:43;102162.13;;;6.79;100.00
23733;BME280;12047;53.450;-2.286;2022-12-07T05:01:44;102164.28;;;7.06;100.00
23733;BME280;12047;53.450;-2.286;2022-12-07T05:06:44;102170.56;;;6.52;100.00
23733;BME280;12047;53.450;-2.286;2022-12-07T05:11:45;102164.66;;;6.29;100.00
23733;BME280;12047;53.450;-2.286;2022-12-07T05:16:48;102167.03;;;7.20;100.00
23733;BME280;12047;53.450;-2.286;2022-12-07T05:21:49;102167.25;;;6.48;100.00
23733;BME280;12047;53.450;-2.286;2022-12-07T05:26:50;102162.28;;;6.06;100.00
23733;BME280;12047;53.450;-2.286;2022-12-07T05:31:51;102164.06;;;6.41;100.00
23733;BME280;12047;53.450;-2.286;2022-12-07T05:36:51;102163.06;;;6.78;100.00
23733;BME280;12047;53.450;-2.286;2022-12-07T05:41:52;102172.06;;;6.74;100.00
23733;BME280;12047;53.450;-2.286;2022-12-07T05:47:12;102173.44;;;6.81;100.00
23733;BME280;12047;53.450;-2.286;2022-12-07T05:52:14;102169.13;;;6.10;100.00
23733;BME280;12047;53.450;-2.286;2022-12-07T05:57:14;102162.16;;;6.09;100.00
23733;BME280;12047;53.450;-2.286;2022-12-07T06:02:15;102161.38;;;6.07;100.00
23733;BME280;12047;53.450;-2.286;2022-12-07T06:07:16;102162.88;;;6.30;100.00
23733;BME280;12047;53.450;-2.286;2022-12-07T06:12:17;102155.47;;;5.83;100.00
23733;BME280;12047;53.450;-2.286;2022-12-07T06:17:36;102155.56;;;6.36;100.00
23733;BME280;12047;53.450;-2.286;2022-12-07T06:22:37;102162.53;;;6.37;100.00
23733;BME280;12047;53.450;-2.286;2022-12-07T06:27:37;102157.88;;;6.42;100.00
23733;BME280;12047;53.450;-2.286;2022-12-07T06:32:38;102166.00;;;5.83;100.00
23733;BME280;12047;53.450;-2.286;2022-12-07T06:37:38;102152.84;;;6.02;100.00
23733;BME280;12047;53.450;-2.286;2022-12-07T06:42:39;102147.66;;;6.54;100.00
23733;BME280;12047;53.450;-2.286;2022-12-07T06:47:42;102153.16;;;6.83;100.00
23733;BME280;12047;53.450;-2.286;2022-12-07T06:52:42;102154.19;;;6.64;100.00
23733;BME280;12047;53.450;-2.286;2022-12-07T06:57:43;102146.03;;;6.51;100.00
23733;BME280;12047;53.450;-2.286;2022-12-07T07:02:44;102144.75;;;6.24;100.00
23733;BME280;12047;53.450;-2.286;2022-12-07T07:07:44;102148.03;;;6.46;100.00
23733;BME280;12047;53.450;-2.286;2022-12-07T07:12:45;102151.38;;;6.49;100.00
23733;BME280;12047;53.450;-2.286;2022-12-07T07:17:46;102145.03;;;5.81;100.00
23733;BME280;12047;53.450;-2.286;2022-12-07T07:22:46;102137.44;;;6.65;100.00
23733;BME280;12047;53.450;-2.286;2022-12-07T07:27:47;102126.25;;;6.77;100.00
23733;BME280;12047;53.450;-2.286;2022-12-07T07:32:48;102124.84;;;5.44;100.00
23733;BME280;12047;53.450;-2.286;2022-12-07T07:37:48;102126.56;;;5.64;100.00
23733;BME280;12047;53.450;-2.286;2022-12-07T07:42:49;102128.06;;;6.42;100.00
23733;BME280;12047;53.450;-2.286;2022-12-07T07:47:51;102119.31;;;6.59;100.00
23733;BME280;12047;53.450;-2.286;2022-12-07T07:52:58;102131.88;;;5.63;100.00
23733;BME280;12047;53.450;-2.286;2022-12-07T07:58:02;102144.78;;;5.30;100.00
23733;BME280;12047;53.450;-2.286;2022-12-07T08:03:03;102136.56;;;6.81;100.00
23733;BME280;12047;53.450;-2.286;2022-12-07T08:08:04;102139.97;;;6.14;100.00
23733;BME280;12047;53.450;-2.286;2022-12-07T08:13:04;102137.97;;;6.54;100.00
23733;BME280;12047;53.450;-2.286;2022-12-07T08:18:11;102138.72;;;6.73;100.00
23733;BME280;12047;53.450;-2.286;2022-12-07T08:23:12;102129.59;;;6.46;100.00
23733;BME280;12047;53.450;-2.286;2022-12-07T08:28:14;102126.72;;;6.85;100.00
23733;BME280;12047;53.450;-2.286;2022-12-07T08:33:16;102124.94;;;8.29;100.00
23733;BME280;12047;53.450;-2.286;2022-12-07T08:38:17;102130.84;;;6.56;100.00
23733;BME280;12047;53.450;-2.286;2022-12-07T08:43:20;102127.31;;;5.85;100.00
23733;BME280;12047;53.450;-2.286;2022-12-07T08:48:21;102132.56;;;6.04;100.00
23733;BME280;12047;53.450;-2.286;2022-12-07T08:53:22;102133.78;;;6.33;100.00
23733;BME280;12047;53.450;-2.286;2022-12-07T08:58:23;102133.81;;;7.00;100.00
23733;BME280;12047;53.450;-2.286;2022-12-07T09:03:23;102119.50;;;7.22;100.00
23733;BME280;12047;53.450;-2.286;2022-12-07T09:08:28;102130.06;;;6.37;100.00
23733;BME280;12047;53.450;-2.286;2022-12-07T09:13:30;102130.50;;;6.97;100.00
23733;BME280;12047;53.450;-2.286;2022-12-07T09:18:31;102125.41;;;6.76;100.00
23733;BME280;12047;53.450;-2.286;2022-12-07T09:23:32;102122.19;;;6.01;100.00
23733;BME280;12047;53.450;-2.286;2022-12-07T09:28:33;102125.78;;;7.19;100.00
23733;BME280;12047;53.450;-2.286;2022-12-07T09:33:33;102121.19;;;7.23;100.00
23733;BME280;12047;53.450;-2.286;2022-12-07T09:38:34;102115.75;;;7.10;100.00
23733;BME280;12047;53.450;-2.286;2022-12-07T09:43:36;102116.41;;;6.80;100.00
23733;BME280;12047;53.450;-2.286;2022-12-07T09:48:40;102118.59;;;7.70;100.00
23733;BME280;12047;53.450;-2.286;2022-12-07T09:53:43;102108.47;;;7.31;100.00
23733;BME280;12047;53.450;-2.286;2022-12-07T09:58:44;102111.31;;;7.10;100.00
23733;BME280;12047;53.450;-2.286;2022-12-07T10:04:00;102113.50;;;7.35;100.00
23733;BME280;12047;53.450;-2.286;2022-12-07T10:09:08;102110.88;;;7.67;100.00
23733;BME280;12047;53.450;-2.286;2022-12-07T10:14:13;102122.78;;;6.76;100.00
23733;BME280;12047;53.450;-2.286;2022-12-07T10:19:24;102117.00;;;7.36;100.00
23733;BME280;12047;53.450;-2.286;2022-12-07T10:24:25;102114.47;;;7.66;100.00
23733;BME280;12047;53.450;-2.286;2022-12-07T10:29:32;102103.97;;;7.80;100.00
23733;BME280;12047;53.450;-2.286;2022-12-07T10:34:37;102092.13;;;7.24;100.00
23733;BME280;12047;53.450;-2.286;2022-12-07T10:44:46;102088.09;;;7.96;100.00
23733;BME280;12047;53.450;-2.286;2022-12-07T10:50:51;102081.94;;;7.81;100.00
23733;BME280;12047;53.450;-2.286;2022-12-07T11:06:30;102056.81;;;7.74;100.00
23733;BME280;12047;53.450;-2.286;2022-12-07T11:11:37;102051.81;;;8.15;100.00
23733;BME280;12047;53.450;-2.286;2022-12-07T11:17:03;102038.06;;;8.24;100.00
23733;BME280;12047;53.450;-2.286;2022-12-07T11:22:14;102033.44;;;7.98;100.00
23733;BME280;12047;53.450;-2.286;2022-12-07T11:27:30;102033.63;;;7.95;100.00
23733;BME280;12047;53.450;-2.286;2022-12-07T11:32:42;102025.59;;;8.26;100.00
23733;BME280;12047;53.450;-2.286;2022-12-07T11:37:45;102019.22;;;8.30;100.00
23733;BME280;12047;53.450;-2.286;2022-12-07T11:43:20;102026.13;;;8.33;100.00
23733;BME280;12047;53.450;-2.286;2022-12-07T11:48:32;102022.41;;;8.79;100.00
23733;BME280;12047;53.450;-2.286;2022-12-07T11:53:46;102020.03;;;8.75;100.00
23733;BME280;12047;53.450;-2.286;2022-12-07T11:58:55;102002.59;;;8.28;100.00
23733;BME280;12047;53.450;-2.286;2022-12-07T12:04:23;101986.34;;;8.36;100.00
23733;BME280;12047;53.450;-2.286;2022-12-07T12:09:48;101970.38;;;8.51;100.00
23733;BME280;12047;53.450;-2.286;2022-12-07T12:15:16;101966.22;;;8.47;100.00
23733;BME280;12047;53.450;-2.286;2022-12-07T12:20:47;101968.59;;;8.52;100.00
23733;BME280;12047;53.450;-2.286;2022-12-07T12:26:05;101945.72;;;8.94;100.00
23733;BME280;12047;53.450;-2.286;2022-12-07T12:31:14;101942.47;;;8.47;100.00
23733;BME280;12047;53.450;-2.286;2022-12-07T12:57:22;101919.38;;;9.46;100.00
23733;BME280;12047;53.450;-2.286;2022-12-07T13:08:01;101922.69;;;9.89;100.00
23733;BME280;12047;53.450;-2.286;2022-12-07T13:28:40;101882.31;;;9.85;100.00
23733;BME280;12047;53.450;-2.286;2022-12-07T13:33:45;101881.94;;;9.52;100.00
23733;BME280;12047;53.450;-2.286;2022-12-07T13:39:00;101875.22;;;10.11;100.00
23733;BME280;12047;53.450;-2.286;2022-12-07T13:44:13;101876.47;;;9.80;100.00
23733;BME280;12047;53.450;-2.286;2022-12-07T13:54:20;101848.94;;;9.58;100.00
23733;BME280;12047;53.450;-2.286;2022-12-07T13:59:25;101838.16;;;9.99;100.00
23733;BME280;12047;53.450;-2.286;2022-12-07T14:04:37;101827.91;;;10.56;100.00
23733;BME280;12047;53.450;-2.286;2022-12-07T14:09:37;101811.88;;;10.34;100.00
23733;BME280;12047;53.450;-2.286;2022-12-07T14:14:47;101806.56;;;10.34;100.00
23733;BME280;12047;53.450;-2.286;2022-12-07T14:19:51;101808.16;;;10.23;100.00
23733;BME280;12047;53.450;-2.286;2022-12-07T14:30:17;101802.91;;;10.47;100.00
23733;BME280;12047;53.450;-2.286;2022-12-07T14:35:19;101790.72;;;10.45;100.00
23733;BME280;12047;53.450;-2.286;2022-12-07T14:40:24;101791.53;;;10.21;100.00
23733;BME280;12047;53.450;-2.286;2022-12-07T14:45:28;101786.13;;;10.23;100.00
23733;BME280;12047;53.450;-2.286;2022-12-07T14:50:30;101778.94;;;10.49;100.00
23733;BME280;12047;53.450;-2.286;2022-12-07T14:55:35;101780.75;;;9.74;100.00
23733;BME280;12047;53.450;-2.286;2022-12-07T15:00:35;101779.59;;;9.40;100.00
23733;BME280;12047;53.450;-2.286;2022-12-07T15:05:37;101778.06;;;10.37;99.88
23733;BME280;12047;53.450;-2.286;2022-12-07T15:10:41;101768.06;;;10.65;97.51
23733;BME280;12047;53.450;-2.286;2022-12-07T15:15:44;101768.34;;;10.49;97.26
23733;BME280;12047;53.450;-2.286;2022-12-07T15:20:46;101769.94;;;10.02;98.07
23733;BME280;12047;53.450;-2.286;2022-12-07T15:25:48;101770.75;;;10.15;96.92
23733;BME280;12047;53.450;-2.286;2022-12-07T15:30:49;101765.38;;;9.92;99.32
23733;BME280;12047;53.450;-2.286;2022-12-07T15:35:49;101761.03;;;10.03;98.03
23733;BME280;12047;53.450;-2.286;2022-12-07T15:40:50;101754.09;;;9.64;97.74
23733;BME280;12047;53.450;-2.286;2022-12-07T15:45:51;101747.59;;;9.94;96.62
23733;BME280;12047;53.450;-2.286;2022-12-07T15:50:51;101737.13;;;9.67;96.28
23733;BME280;12047;53.450;-2.286;2022-12-07T15:55:52;101728.63;;;10.00;96.31
23733;BME280;12047;53.450;-2.286;2022-12-07T16:00:52;101725.59;;;10.17;93.96
23733;BME280;12047;53.450;-2.286;2022-12-07T16:05:54;101725.81;;;9.77;95.21
23733;BME280;12047;53.450;-2.286;2022-12-07T16:10:54;101720.63;;;9.88;94.50
23733;BME280;12047;53.450;-2.286;2022-12-07T16:15:55;101712.69;;;9.76;93.76
23733;BME280;12047;53.450;-2.286;2022-12-07T16:20:56;101708.13;;;9.78;91.48
23733;BME280;12047;53.450;-2.286;2022-12-07T16:26:23;101717.78;;;9.28;92.84
23733;BME280;12047;53.450;-2.286;2022-12-07T16:31:26;101704.09;;;9.85;91.65
23733;BME280;12047;53.450;-2.286;2022-12-07T16:36:28;101688.84;;;9.88;91.94
23733;BME280;12047;53.450;-2.286;2022-12-07T16:41:32;101680.16;;;9.86;91.59
23733;BME280;12047;53.450;-2.286;2022-12-07T16:46:33;101674.56;;;9.66;92.72
23733;BME280;12047;53.450;-2.286;2022-12-07T16:51:38;101672.19;;;9.50;94.33
23733;BME280;12047;53.450;-2.286;2022-12-07T16:56:41;101670.28;;;9.65;93.32
23733;BME280;12047;53.450;-2.286;2022-12-07T17:01:42;101670.81;;;9.44;94.99
23733;BME280;12047;53.450;-2.286;2022-12-07T17:06:43;101654.63;;;9.24;95.37
23733;BME280;12047;53.450;-2.286;2022-12-07T17:11:44;101648.91;;;8.92;96.67
23733;BME280;12047;53.450;-2.286;2022-12-07T17:16:45;101653.53;;;8.75;96.83
23733;BME280;12047;53.450;-2.286;2022-12-07T17:21:46;101653.38;;;9.04;98.06
23733;BME280;12047;53.450;-2.286;2022-12-07T17:26:51;101652.41;;;9.17;98.46
23733;BME280;12047;53.450;-2.286;2022-12-07T17:31:51;101648.09;;;8.51;99.13
23733;BME280;12047;53.450;-2.286;2022-12-07T17:36:52;101640.19;;;8.51;100.00
23733;BME280;12047;53.450;-2.286;2022-12-07T17:41:54;101629.50;;;8.40;100.00
23733;BME280;12047;53.450;-2.286;2022-12-07T17:47:13;101633.84;;;8.54;99.34
23733;BME280;12047;53.450;-2.286;2022-12-07T17:52:16;101628.38;;;8.57;98.12
23733;BME280;12047;53.450;-2.286;2022-12-07T17:57:33;101625.38;;;8.49;98.19
23733;BME280;12047;53.450;-2.286;2022-12-07T18:02:34;101627.16;;;8.22;100.00
23733;BME280;12047;53.450;-2.286;2022-12-07T18:07:34;101615.31;;;8.41;100.00
23733;BME280;12047;53.450;-2.286;2022-12-07T18:12:46;101617.53;;;8.35;100.00
23733;BME280;12047;53.450;-2.286;2022-12-07T18:17:49;101617.34;;;8.38;99.83
23733;BME280;12047;53.450;-2.286;2022-12-07T18:22:51;101602.66;;;8.34;99.66
23733;BME280;12047;53.450;-2.286;2022-12-07T18:27:51;101598.84;;;8.38;100.00
23733;BME280;12047;53.450;-2.286;2022-12-07T18:32:52;101592.38;;;8.02;100.00
23733;BME280;12047;53.450;-2.286;2022-12-07T18:37:53;101596.03;;;7.87;100.00
23733;BME280;12047;53.450;-2.286;2022-12-07T18:42:54;101586.53;;;8.24;100.00
23733;BME280;12047;53.450;-2.286;2022-12-07T18:47:57;101591.16;;;8.20;100.00
23733;BME280;12047;53.450;-2.286;2022-12-07T18:53:01;101590.66;;;7.89;100.00
23733;BME280;12047;53.450;-2.286;2022-12-07T18:58:04;101583.56;;;7.89;100.00
23733;BME280;12047;53.450;-2.286;2022-12-07T19:03:05;101577.75;;;7.84;100.00
23733;BME280;12047;53.450;-2.286;2022-12-07T19:08:05;101572.53;;;7.56;100.00
23733;BME280;12047;53.450;-2.286;2022-12-07T19:13:06;101565.03;;;8.03;100.00
23733;BME280;12047;53.450;-2.286;2022-12-07T19:18:07;101562.00;;;10.09;100.00
23733;BME280;12047;53.450;-2.286;2022-12-07T19:23:08;101563.03;;;8.34;100.00
23733;BME280;12047;53.450;-2.286;2022-12-07T19:28:08;101547.59;;;7.47;100.00
23733;BME280;12047;53.450;-2.286;2022-12-07T19:33:09;101545.47;;;7.93;100.00
23733;BME280;12047;53.450;-2.286;2022-12-07T19:38:12;101537.31;;;7.83;100.00
23733;BME280;12047;53.450;-2.286;2022-12-07T19:43:13;101529.50;;;7.82;100.00
23733;BME280;12047;53.450;-2.286;2022-12-07T19:48:14;101521.88;;;7.09;100.00
23733;BME280;12047;53.450;-2.286;2022-12-07T19:53:14;101516.75;;;7.62;100.00
23733;BME280;12047;53.450;-2.286;2022-12-07T19:58:15;101516.97;;;7.18;100.00
23733;BME280;12047;53.450;-2.286;2022-12-07T20:03:16;101514.34;;;6.75;100.00
23733;BME280;12047;53.450;-2.286;2022-12-07T20:08:16;101511.09;;;7.41;100.00
23733;BME280;12047;53.450;-2.286;2022-12-07T20:13:18;101512.66;;;7.43;100.00
23733;BME280;12047;53.450;-2.286;2022-12-07T20:18:29;101510.53;;;7.36;100.00
23733;BME280;12047;53.450;-2.286;2022-12-07T20:23:30;101511.59;;;7.05;100.00
23733;BME280;12047;53.450;-2.286;2022-12-07T20:28:30;101494.31;;;6.72;100.00
23733;BME280;12047;53.450;-2.286;2022-12-07T20:33:31;101492.22;;;7.06;100.00
23733;BME280;12047;53.450;-2.286;2022-12-07T20:38:32;101490.00;;;6.86;100.00
23733;BME280;12047;53.450;-2.286;2022-12-07T20:43:33;101485.25;;;7.05;100.00
23733;BME280;12047;53.450;-2.286;2022-12-07T20:48:34;101488.38;;;6.69;100.00
23733;BME280;12047;53.450;-2.286;2022-12-07T20:53:34;101472.13;;;6.62;100.00
23733;BME280;12047;53.450;-2.286;2022-12-07T20:58:35;101461.81;;;5.85;100.00
23733;BME280;12047;53.450;-2.286;2022-12-07T21:03:38;101470.78;;;6.27;100.00
23733;BME280;12047;53.450;-2.286;2022-12-07T21:08:43;101453.72;;;7.03;100.00
23733;BME280;12047;53.450;-2.286;2022-12-07T21:13:45;101446.34;;;6.81;100.00
23733;BME280;12047;53.450;-2.286;2022-12-07T21:18:46;101442.66;;;7.25;100.00
23733;BME280;12047;53.450;-2.286;2022-12-07T21:23:49;101451.78;;;5.62;100.00
23733;BME280;12047;53.450;-2.286;2022-12-07T21:28:51;101430.22;;;6.01;100.00
23733;BME280;12047;53.450;-2.286;2022-12-07T21:33:52;101433.75;;;6.58;100.00
23733;BME280;12047;53.450;-2.286;2022-12-07T21:38:53;101430.94;;;7.02;100.00
23733;BME280;12047;53.450;-2.286;2022-12-07T21:43:54;101425.44;;;6.78;100.00
23733;BME280;12047;53.450;-2.286;2022-12-07T21:48:58;101421.81;;;7.08;100.00
23733;BME280;12047;53.450;-2.286;2022-12-07T21:54:00;101418.03;;;7.12;100.00
23733;BME280;12047;53.450;-2.286;2022-12-07T21:59:05;101412.31;;;6.64;100.00
23733;BME280;12047;53.450;-2.286;2022-12-07T22:04:07;101393.22;;;6.61;100.00
23733;BME280;12047;53.450;-2.286;2022-12-07T22:09:08;101403.09;;;5.40;100.00
23733;BME280;12047;53.450;-2.286;2022-12-07T22:14:09;101392.81;;;5.96;100.00
23733;BME280;12047;53.450;-2.286;2022-12-07T22:19:29;101385.50;;;5.71;100.00
23733;BME280;12047;53.450;-2.286;2022-12-07T22:24:29;101380.94;;;6.19;100.00
23733;BME280;12047;53.450;-2.286;2022-12-07T22:29:30;101384.47;;;6.60;100.00
23733;BME280;12047;53.450;-2.286;2022-12-07T22:34:30;101378.22;;;6.75;100.00
23733;BME280;12047;53.450;-2.286;2022-12-07T22:39:31;101371.97;;;6.49;100.00
23733;BME280;12047;53.450;-2.286;2022-12-07T22:44:32;101371.03;;;6.65;100.00
23733;BME280;12047;53.450;-2.286;2022-12-07T22:55:48;101364.75;;;6.39;100.00
23733;BME280;12047;53.450;-2.286;2022-12-07T23:01:10;101360.53;;;6.92;100.00
23733;BME280;12047;53.450;-2.286;2022-12-07T23:06:14;101355.16;;;6.38;100.00
23733;BME280;12047;53.450;-2.286;2022-12-07T23:11:19;101348.56;;;6.02;100.00
23733;BME280;12047;53.450;-2.286;2022-12-07T23:16:39;101357.22;;;4.53;100.00
23733;BME280;12047;53.450;-2.286;2022-12-07T23:21:40;101353.44;;;5.94;100.00
23733;BME280;12047;53.450;-2.286;2022-12-07T23:26:42;101353.09;;;6.29;100.00
23733;BME280;12047;53.450;-2.286;2022-12-07T23:31:45;101350.84;;;6.08;100.00
23733;BME280;12047;53.450;-2.286;2022-12-07T23:36:46;101350.78;;;4.90;100.00
23733;BME280;12047;53.450;-2.286;2022-12-07T23:41:46;101358.16;;;6.03;100.00
23733;BME280;12047;53.450;-2.286;2022-12-07T23:46:47;101342.94;;;6.37;100.00
23733;BME280;12047;53.450;-2.286;2022-12-07T23:51:47;101339.94;;;6.14;100.00
23733;BME280;12047;53.450;-2.286;2022-12-07T23:56:48;101326.72;;;5.72;100.00
